Time;durP1;ratioP1;P1;durP2;ratioP2;P2;SDS_P1;SDS_P2;PMS_P1;PMS_P2;Temp;Humidity;BMP_temperature;BMP_pressure;BME280_temperature;BME280_humidity;BME280_pressure;Samples;Min_cycle;Max_cycle;Signal;HPM_P1;HPM_P2
2023/01/26 00:01:21;;;;;;;20.40;12.23;;;3.90;94.50;;;;;;5062131;28;20201;-65
2023/01/26 00:03:49;;;;;;;22.07;12.67;;;3.90;94.10;;;;;;5065069;28;20594;-65
2023/01/26 00:06:18;;;;;;;21.27;11.57;;;4.00;94.00;;;;;;5059929;28;20202;-65
2023/01/26 00:08:51;;;;;;;23.10;12.77;;;4.00;93.90;;;;;;5061635;28;20228;-65
2023/01/26 00:11:25;;;;;;;22.60;13.40;;;4.00;93.90;;;;;;5063178;28;20193;-65
2023/01/26 00:13:54;;;;;;;18.00;10.93;;;3.90;93.90;;;;;;5064657;28;20220;-65
2023/01/26 00:16:22;;;;;;;19.87;11.77;;;3.90;93.90;;;;;;5067547;28;20208;-65
2023/01/26 00:18:49;;;;;;;19.37;11.80;;;4.00;93.80;;;;;;5063249;28;20260;-65
2023/01/26 00:21:20;;;;;;;20.27;11.47;;;4.00;93.80;;;;;;5063967;28;20205;-65
2023/01/26 00:23:48;;;;;;;15.93;9.97;;;4.00;93.70;;;;;;5063454;28;20216;-65
2023/01/26 00:26:18;;;;;;;19.03;11.23;;;4.00;93.70;;;;;;5064470;28;20541;-65
2023/01/26 00:28:46;;;;;;;20.43;12.13;;;4.10;93.50;;;;;;5062668;28;20205;-65
2023/01/26 00:31:25;;;;;;;16.10;10.30;;;4.10;93.40;;;;;;5069282;28;20639;-65
2023/01/26 00:33:55;;;;;;;17.23;10.43;;;4.10;93.20;;;;;;5062410;28;20247;-65
2023/01/26 00:36:23;;;;;;;15.73;9.27;;;4.10;93.10;;;;;;5072167;28;20299;-65
2023/01/26 00:38:50;;;;;;;16.03;10.13;;;4.10;93.10;;;;;;5062878;28;20213;-65
2023/01/26 00:44:03;;;;;;;17.87;9.87;;;4.10;93.00;;;;;;5064849;28;20485;-65
2023/01/26 00:46:30;;;;;;;16.07;10.50;;;4.10;93.10;;;;;;5064610;28;20656;-65
2023/01/26 00:48:59;;;;;;;18.03;9.20;;;4.10;93.00;;;;;;5063507;28;20249;-64
2023/01/26 00:51:26;;;;;;;16.03;9.67;;;4.10;93.00;;;;;;5049900;28;20201;-65
2023/01/26 00:53:53;;;;;;;15.63;10.90;;;4.10;92.90;;;;;;5062765;28;20201;-65
2023/01/26 00:56:20;;;;;;;16.00;9.60;;;4.10;92.90;;;;;;5063393;28;20199;-65
2023/01/26 00:58:47;;;;;;;19.43;9.40;;;4.00;92.80;;;;;;5065668;28;20196;-65
2023/01/26 01:01:16;;;;;;;14.77;9.90;;;4.00;92.80;;;;;;5059707;28;20213;-65
2023/01/26 01:03:43;;;;;;;15.20;9.40;;;4.00;93.10;;;;;;5066505;28;20297;-65
2023/01/26 01:06:10;;;;;;;16.23;9.07;;;4.00;92.90;;;;;;5055723;28;20241;-65
2023/01/26 01:08:37;;;;;;;14.20;9.33;;;4.00;93.00;;;;;;5065062;28;20220;-65
2023/01/26 01:11:08;;;;;;;16.53;8.57;;;4.00;93.00;;;;;;5068546;28;20206;-65
2023/01/26 01:13:35;;;;;;;14.00;8.20;;;4.00;92.90;;;;;;5062142;28;20284;-65
2023/01/26 01:16:12;;;;;;;15.60;9.83;;;4.00;92.90;;;;;;5070801;28;20274;-65
2023/01/26 01:18:39;;;;;;;17.30;9.60;;;4.00;92.90;;;;;;5066055;28;20216;-65
2023/01/26 01:21:13;;;;;;;13.53;8.73;;;4.00;93.00;;;;;;5063071;28;20542;-65
2023/01/26 01:23:42;;;;;;;13.60;8.73;;;4.00;93.00;;;;;;5061020;28;20205;-65
2023/01/26 01:26:09;;;;;;;13.47;8.60;;;4.00;92.90;;;;;;5068179;28;20224;-65
2023/01/26 01:28:37;;;;;;;14.53;7.73;;;4.00;93.00;;;;;;5063461;28;20584;-65
2023/01/26 01:31:06;;;;;;;13.13;8.23;;;3.90;93.00;;;;;;5066787;28;20674;-65
2023/01/26 01:33:35;;;;;;;17.83;8.87;;;3.90;93.00;;;;;;5065650;28;20266;-65
2023/01/26 01:36:06;;;;;;;13.43;8.60;;;3.90;92.90;;;;;;5063267;28;20638;-65
2023/01/26 01:38:33;;;;;;;13.10;9.03;;;3.90;92.90;;;;;;5066755;28;20211;-65
2023/01/26 01:41:02;;;;;;;14.80;8.37;;;3.90;92.90;;;;;;5061079;28;20216;-65
2023/01/26 01:43:29;;;;;;;14.00;8.70;;;3.90;92.90;;;;;;5059944;28;20232;-65
2023/01/26 01:45:59;;;;;;;15.70;9.17;;;3.90;93.00;;;;;;5064626;28;20230;-65
2023/01/26 01:48:57;;;;;;;13.63;8.70;;;3.90;93.00;;;;;;5064828;28;20209;-65
2023/01/26 01:51:29;;;;;;;13.23;8.13;;;3.90;93.10;;;;;;5065805;28;20205;-65
2023/01/26 01:53:58;;;;;;;18.37;8.90;;;3.90;93.00;;;;;;5062713;28;20209;-65
2023/01/26 01:56:27;;;;;;;13.83;8.47;;;3.90;93.10;;;;;;5061679;28;20285;-65
2023/01/26 01:58:56;;;;;;;18.60;9.30;;;3.90;93.10;;;;;;5061245;28;20197;-65
2023/01/26 02:01:24;;;;;;;17.97;8.43;;;3.90;93.10;;;;;;5062115;28;20216;-65
2023/01/26 02:03:54;;;;;;;15.73;9.17;;;3.90;93.20;;;;;;5063278;28;20275;-65
2023/01/26 02:06:58;;;;;;;18.93;9.53;;;3.80;93.30;;;;;;5056799;28;20206;-65
2023/01/26 02:12:36;;;;;;;11.50;7.80;;;3.90;93.40;;;;;;5032638;28;20606;-65
2023/01/26 02:15:03;;;;;;;11.87;8.00;;;3.90;93.30;;;;;;5027493;28;20247;-65
2023/01/26 02:17:31;;;;;;;14.80;9.03;;;3.90;93.30;;;;;;5044863;28;20212;-65
2023/01/26 02:20:15;;;;;;;13.63;8.70;;;3.90;93.30;;;;;;5061472;28;20285;-65
2023/01/26 02:22:51;;;;;;;13.23;8.40;;;3.80;93.40;;;;;;5065859;28;20284;-65
2023/01/26 02:25:34;;;;;;;14.07;9.37;;;3.80;93.40;;;;;;5064702;28;20216;-65
2023/01/26 02:28:01;;;;;;;15.03;9.33;;;3.80;93.40;;;;;;5064972;28;20197;-65
2023/01/26 02:30:29;;;;;;;13.43;8.87;;;3.70;93.40;;;;;;5067034;28;20222;-65
2023/01/26 02:32:57;;;;;;;15.90;9.07;;;3.70;93.50;;;;;;5100297;28;20239;-65
2023/01/26 02:35:24;;;;;;;14.63;8.67;;;3.70;93.60;;;;;;5073235;28;20205;-65
2023/01/26 02:37:52;;;;;;;14.30;8.80;;;3.70;93.30;;;;;;5068424;28;20257;-65
2023/01/26 02:40:53;;;;;;;17.93;9.13;;;3.60;92.90;;;;;;5066139;28;20279;-65
2023/01/26 02:43:24;;;;;;;12.37;8.47;;;3.60;93.10;;;;;;5066626;28;20244;-66
2023/01/26 02:45:51;;;;;;;16.67;9.57;;;3.50;93.20;;;;;;5064511;28;20271;-65
2023/01/26 02:51:06;;;;;;;17.80;8.53;;;3.50;93.60;;;;;;5084428;28;20222;-65
2023/01/26 02:53:33;;;;;;;14.93;8.47;;;3.60;93.70;;;;;;5072317;28;20296;-65
2023/01/26 02:56:01;;;;;;;15.33;9.13;;;3.50;93.60;;;;;;5074277;28;20223;-65
2023/01/26 02:58:28;;;;;;;18.83;10.23;;;3.60;93.60;;;;;;5071392;28;20226;-65
2023/01/26 03:00:55;;;;;;;15.27;9.40;;;3.50;93.70;;;;;;5064108;28;20294;-65
2023/01/26 03:03:24;;;;;;;16.10;9.37;;;3.50;93.70;;;;;;5062234;28;20270;-65
2023/01/26 03:05:51;;;;;;;14.77;9.17;;;3.60;93.80;;;;;;5063664;28;20202;-65
2023/01/26 03:08:18;;;;;;;14.77;9.13;;;3.60;93.80;;;;;;5082928;28;20550;-65
2023/01/26 03:10:46;;;;;;;15.90;9.23;;;3.50;93.70;;;;;;5071124;28;20221;-65
2023/01/26 03:13:13;;;;;;;14.93;9.20;;;3.50;93.70;;;;;;5069399;28;20228;-65
2023/01/26 03:15:51;;;;;;;16.90;9.30;;;3.50;93.70;;;;;;5071994;28;20846;-65
2023/01/26 03:29:33;;;;;;;16.20;9.50;;;3.40;93.90;;;;;;5060758;28;20229;-65
2023/01/26 03:32:01;;;;;;;12.37;8.20;;;3.40;94.00;;;;;;5072199;28;20640;-65
2023/01/26 03:34:29;;;;;;;17.73;9.53;;;3.40;94.00;;;;;;5067691;28;20611;-65
2023/01/26 03:36:57;;;;;;;16.27;9.00;;;3.30;94.10;;;;;;5059929;28;20205;-65
2023/01/26 03:56:23;;;;;;;14.93;8.40;;;3.30;93.90;;;;;;5070767;28;20661;-65
2023/01/26 03:58:55;;;;;;;14.00;8.57;;;3.30;93.90;;;;;;5071659;28;20208;-65
2023/01/26 04:01:26;;;;;;;15.93;9.43;;;3.30;94.00;;;;;;5067860;28;20297;-65
2023/01/26 04:09:35;;;;;;;18.60;9.60;;;3.30;94.10;;;;;;5064178;28;20271;-65
2023/01/26 04:12:03;;;;;;;15.47;9.23;;;3.20;94.20;;;;;;5047942;28;20209;-65
2023/01/26 04:22:55;;;;;;;17.60;9.87;;;3.20;94.20;;;;;;5078626;28;20254;-65
2023/01/26 04:25:22;;;;;;;14.97;9.20;;;3.10;94.20;;;;;;5064501;28;20202;-65
2023/01/26 04:27:49;;;;;;;16.47;9.87;;;3.10;94.20;;;;;;5068181;28;20293;-65
2023/01/26 04:30:18;;;;;;;17.13;8.87;;;3.10;94.30;;;;;;5064989;28;20291;-66
2023/01/26 04:32:45;;;;;;;13.50;8.97;;;3.10;94.30;;;;;;5070165;28;20636;-65
2023/01/26 04:35:13;;;;;;;16.13;8.83;;;3.00;94.30;;;;;;5068404;28;20209;-65
2023/01/26 04:37:43;;;;;;;18.70;10.37;;;3.00;94.30;;;;;;5072038;28;20696;-65
2023/01/26 04:40:10;;;;;;;15.47;9.93;;;3.00;94.40;;;;;;5064960;28;20656;-65
2023/01/26 04:42:39;;;;;;;16.83;8.93;;;3.00;94.40;;;;;;5071781;28;20546;-65
2023/01/26 04:45:09;;;;;;;17.37;9.10;;;3.00;94.50;;;;;;5080077;28;20591;-65
2023/01/26 04:47:37;;;;;;;15.73;9.40;;;2.90;94.40;;;;;;5065629;28;20433;-65
2023/01/26 04:50:04;;;;;;;19.20;9.40;;;2.90;94.40;;;;;;5066129;28;20216;-65
2023/01/26 04:52:31;;;;;;;14.27;8.80;;;2.90;94.40;;;;;;5070355;28;20210;-65
2023/01/26 04:54:59;;;;;;;17.10;8.77;;;2.90;94.50;;;;;;5052625;28;20218;-65
2023/01/26 04:57:27;;;;;;;17.10;10.77;;;2.90;94.50;;;;;;5081462;28;20266;-65
2023/01/26 04:59:55;;;;;;;16.50;10.10;;;2.90;94.40;;;;;;5070395;28;20731;-65
2023/01/26 05:02:22;;;;;;;15.47;9.53;;;2.80;94.40;;;;;;5066902;28;20239;-66
2023/01/26 05:04:49;;;;;;;18.10;9.30;;;2.80;94.50;;;;;;5066619;28;20232;-65
2023/01/26 05:07:16;;;;;;;17.77;9.37;;;2.80;94.50;;;;;;5070688;28;20519;-65
2023/01/26 05:09:45;;;;;;;21.20;9.97;;;2.80;94.60;;;;;;5069684;28;20218;-65
2023/01/26 05:12:32;;;;;;;15.07;8.37;;;2.80;94.50;;;;;;5051056;28;20292;-65
2023/01/26 05:15:22;;;;;;;14.50;8.53;;;2.80;94.50;;;;;;5058223;28;20222;-65
2023/01/26 05:17:58;;;;;;;16.37;9.67;;;2.70;94.50;;;;;;5055175;28;20210;-66
2023/01/26 05:20:49;;;;;;;16.23;9.33;;;2.70;94.50;;;;;;5047662;28;20227;-65
2023/01/26 05:23:21;;;;;;;16.00;9.50;;;2.70;94.50;;;;;;5065509;28;20199;-65
2023/01/26 05:26:12;;;;;;;18.47;10.03;;;2.70;94.50;;;;;;5048765;28;20296;-65
2023/01/26 05:29:05;;;;;;;15.97;9.77;;;2.70;94.60;;;;;;5061789;28;20270;-65
2023/01/26 05:31:33;;;;;;;15.93;9.07;;;2.60;94.60;;;;;;5062078;28;20205;-65
2023/01/26 05:34:00;;;;;;;16.80;10.43;;;2.60;94.70;;;;;;5067236;28;20208;-65
2023/01/26 05:36:28;;;;;;;15.03;10.17;;;2.60;94.70;;;;;;5067257;28;20208;-65
2023/01/26 05:38:56;;;;;;;24.57;10.83;;;2.60;94.70;;;;;;5066826;28;20215;-65
2023/01/26 05:41:25;;;;;;;18.20;9.97;;;2.60;94.70;;;;;;5070138;28;20226;-66
2023/01/26 05:44:07;;;;;;;21.53;10.60;;;2.60;94.70;;;;;;5065138;28;20224;-65
2023/01/26 05:47:02;;;;;;;20.03;9.77;;;2.60;94.70;;;;;;5061137;28;20647;-65
2023/01/26 05:49:30;;;;;;;17.53;10.17;;;2.60;94.70;;;;;;5068300;28;20685;-65
2023/01/26 05:51:57;;;;;;;14.87;8.67;;;2.50;94.60;;;;;;5068469;28;20629;-65
2023/01/26 05:54:24;;;;;;;17.17;9.17;;;2.50;94.50;;;;;;5059712;28;20231;-65
2023/01/26 05:56:52;;;;;;;15.33;9.23;;;2.50;94.50;;;;;;5062791;28;20196;-65
2023/01/26 05:59:19;;;;;;;17.93;9.07;;;2.50;94.60;;;;;;5064506;28;20605;-65
2023/01/26 06:01:46;;;;;;;15.97;8.70;;;2.40;94.60;;;;;;5062625;28;20655;-65
2023/01/26 06:04:15;;;;;;;16.87;9.00;;;2.40;94.70;;;;;;5069376;28;20199;-65
2023/01/26 06:06:52;;;;;;;15.43;9.37;;;2.40;94.60;;;;;;5063279;28;20195;-65
2023/01/26 06:09:23;;;;;;;18.77;9.20;;;2.40;94.70;;;;;;5066646;28;20208;-65
2023/01/26 06:12:19;;;;;;;16.93;9.63;;;2.40;94.70;;;;;;5064372;28;20246;-66
2023/01/26 06:14:54;;;;;;;14.40;9.50;;;2.40;94.80;;;;;;5067216;28;20282;-65
2023/01/26 06:17:24;;;;;;;18.53;9.57;;;2.40;94.70;;;;;;5076885;28;20606;-65
2023/01/26 06:19:56;;;;;;;21.00;10.23;;;2.30;94.60;;;;;;5062382;28;20205;-65
2023/01/26 06:22:24;;;;;;;18.47;10.80;;;2.30;94.70;;;;;;5074792;28;20655;-65
2023/01/26 06:24:51;;;;;;;20.73;10.60;;;2.30;94.60;;;;;;5068562;28;20210;-65
2023/01/26 06:27:19;;;;;;;24.80;11.47;;;2.20;94.60;;;;;;5057271;28;20265;-65
2023/01/26 06:29:49;;;;;;;17.17;9.83;;;2.30;94.80;;;;;;5064946;28;20219;-65
2023/01/26 06:32:16;;;;;;;16.00;9.90;;;2.30;94.90;;;;;;5068026;28;20199;-65
2023/01/26 06:34:45;;;;;;;22.17;11.10;;;2.30;94.90;;;;;;5061939;28;20207;-65
2023/01/26 06:37:13;;;;;;;18.87;9.90;;;2.30;94.90;;;;;;5065889;28;20209;-65
2023/01/26 06:39:40;;;;;;;21.43;10.97;;;2.30;94.80;;;;;;5061671;28;20202;-65
2023/01/26 06:42:08;;;;;;;22.70;9.53;;;2.30;94.70;;;;;;5063469;28;20204;-65
2023/01/26 06:44:37;;;;;;;17.17;9.90;;;2.30;94.70;;;;;;5081110;28;20239;-65
2023/01/26 06:47:05;;;;;;;18.53;9.80;;;2.30;94.70;;;;;;5073040;28;20214;-65
2023/01/26 06:49:33;;;;;;;18.03;10.17;;;2.30;94.70;;;;;;5069007;28;20214;-65
2023/01/26 06:52:34;;;;;;;21.27;10.20;;;2.30;94.80;;;;;;5065151;28;20209;-64
2023/01/26 06:55:19;;;;;;;19.23;9.80;;;2.30;94.90;;;;;;5056092;28;20650;-65
2023/01/26 06:57:53;;;;;;;17.20;9.90;;;2.40;94.90;;;;;;5071206;28;20227;-65
2023/01/26 07:00:45;;;;;;;17.70;9.60;;;2.50;94.80;;;;;;5061963;28;20221;-65
2023/01/26 07:03:12;;;;;;;14.57;9.80;;;2.50;94.70;;;;;;5065644;28;20241;-65
2023/01/26 07:05:39;;;;;;;21.50;9.13;;;2.60;94.70;;;;;;5062317;28;20507;-65
2023/01/26 07:08:07;;;;;;;20.13;9.07;;;2.60;94.50;;;;;;5064691;28;20233;-66
2023/01/26 07:10:35;;;;;;;21.07;10.13;;;2.70;94.50;;;;;;5057893;28;20647;-65
2023/01/26 07:13:04;;;;;;;13.40;8.67;;;2.80;94.30;;;;;;5061279;28;20197;-65
2023/01/26 07:15:31;;;;;;;17.57;9.80;;;2.90;94.20;;;;;;5070498;28;20585;-65
2023/01/26 07:17:58;;;;;;;18.70;9.37;;;3.00;94.00;;;;;;5062867;28;20208;-65
2023/01/26 07:20:26;;;;;;;14.13;8.97;;;3.10;93.60;;;;;;5065084;28;20239;-65
2023/01/26 07:22:53;;;;;;;19.00;8.60;;;3.30;93.30;;;;;;5063243;28;20208;-65
2023/01/26 07:25:20;;;;;;;13.23;8.57;;;3.40;93.00;;;;;;5065165;28;20223;-65
2023/01/26 07:27:47;;;;;;;15.33;8.20;;;3.60;92.40;;;;;;5066839;28;20303;-65
2023/01/26 07:30:14;;;;;;;16.87;9.23;;;3.80;91.80;;;;;;5062123;28;20555;-65
2023/01/26 07:32:41;;;;;;;15.57;8.70;;;3.90;91.40;;;;;;5070355;28;20273;-65
2023/01/26 07:35:08;;;;;;;12.77;8.50;;;3.90;91.10;;;;;;5066277;28;20209;-65
2023/01/26 07:37:35;;;;;;;15.70;9.17;;;3.90;91.20;;;;;;5064435;28;20211;-65
2023/01/26 07:40:04;;;;;;;15.83;9.20;;;3.80;91.40;;;;;;5059963;28;20213;-65
2023/01/26 07:42:31;;;;;;;13.73;9.30;;;3.80;91.50;;;;;;5062698;28;20213;-65
2023/01/26 07:45:17;;;;;;;17.30;8.97;;;3.80;91.30;;;;;;5064958;28;20204;-65
2023/01/26 07:47:44;;;;;;;14.13;8.47;;;3.90;91.30;;;;;;5067650;28;20208;-65
2023/01/26 07:50:12;;;;;;;15.37;8.73;;;3.90;91.10;;;;;;5064844;28;20225;-65
2023/01/26 07:52:39;;;;;;;13.17;7.80;;;4.00;91.10;;;;;;5065410;28;20666;-65
2023/01/26 07:55:06;;;;;;;12.53;8.00;;;4.00;91.10;;;;;;5064773;28;20205;-65
2023/01/26 07:57:33;;;;;;;13.07;8.50;;;4.10;91.00;;;;;;5059296;28;20209;-66
2023/01/26 08:00:01;;;;;;;15.07;8.40;;;4.20;90.80;;;;;;5062647;28;20213;-65
2023/01/26 08:02:37;;;;;;;16.70;8.23;;;4.20;90.60;;;;;;5066996;28;20231;-65
2023/01/26 08:05:05;;;;;;;18.87;8.33;;;4.30;90.50;;;;;;5057504;28;20209;-65
2023/01/26 08:07:32;;;;;;;14.03;8.23;;;4.30;90.30;;;;;;5064040;28;20231;-65
2023/01/26 08:09:59;;;;;;;16.30;8.63;;;4.40;90.30;;;;;;5069104;28;20205;-65
2023/01/26 08:12:26;;;;;;;15.53;9.40;;;4.50;89.30;;;;;;5070089;28;20198;-65
2023/01/26 08:14:53;;;;;;;17.17;9.47;;;4.50;89.40;;;;;;5081920;28;20529;-64
2023/01/26 08:17:20;;;;;;;11.60;7.27;;;4.60;89.30;;;;;;5070055;28;20791;-64
2023/01/26 08:19:47;;;;;;;13.97;8.97;;;4.70;88.40;;;;;;5065189;28;20197;-64
2023/01/26 08:22:14;;;;;;;15.30;7.80;;;4.70;88.30;;;;;;5064875;28;20205;-64
2023/01/26 08:24:41;;;;;;;11.43;7.13;;;4.80;88.20;;;;;;5064239;28;20208;-64
2023/01/26 08:27:08;;;;;;;12.47;7.77;;;4.90;88.00;;;;;;5062405;28;20215;-64
2023/01/26 08:29:35;;;;;;;14.10;7.67;;;4.90;87.40;;;;;;5059685;28;20272;-65
2023/01/26 08:32:02;;;;;;;17.00;8.47;;;5.00;87.30;;;;;;5064846;28;20216;-64
2023/01/26 08:34:30;;;;;;;13.20;8.10;;;5.10;87.80;;;;;;5066913;28;20534;-64
2023/01/26 08:36:57;;;;;;;13.50;7.70;;;5.20;87.90;;;;;;5063236;28;20198;-64
2023/01/26 08:39:24;;;;;;;16.13;8.83;;;5.20;88.10;;;;;;5065394;28;20289;-64
2023/01/26 08:41:51;;;;;;;12.83;8.17;;;5.40;86.50;;;;;;5063389;28;20202;-65
2023/01/26 08:44:18;;;;;;;11.90;7.87;;;5.40;86.20;;;;;;5065699;28;20205;-64
2023/01/26 08:46:45;;;;;;;13.00;8.13;;;5.50;85.40;;;;;;5059461;28;20203;-65
2023/01/26 08:49:12;;;;;;;12.63;8.50;;;5.60;84.80;;;;;;5066358;28;20655;-64
2023/01/26 08:51:39;;;;;;;13.97;7.80;;;5.70;85.10;;;;;;5062346;28;20218;-65
2023/01/26 08:54:09;;;;;;;14.47;8.43;;;5.80;84.10;;;;;;5065148;28;20228;-64
2023/01/26 08:56:36;;;;;;;11.87;8.00;;;5.90;84.20;;;;;;5062448;28;20212;-65
2023/01/26 08:59:03;;;;;;;12.90;8.17;;;5.90;84.50;;;;;;5064584;28;20202;-64
2023/01/26 09:01:30;;;;;;;15.17;8.47;;;6.00;84.50;;;;;;5062447;28;20197;-64
2023/01/26 09:03:58;;;;;;;11.80;7.60;;;6.10;83.10;;;;;;5068876;28;20324;-64
2023/01/26 09:06:27;;;;;;;12.97;8.33;;;6.20;84.30;;;;;;5063762;28;20210;-65
2023/01/26 09:08:54;;;;;;;13.23;8.30;;;6.30;84.40;;;;;;5065025;28;20646;-64
2023/01/26 09:11:21;;;;;;;12.23;8.37;;;6.30;83.60;;;;;;5063368;28;20226;-65
2023/01/26 09:13:55;;;;;;;13.17;8.60;;;6.40;82.80;;;;;;5062374;28;20620;-64
2023/01/26 09:16:23;;;;;;;15.10;8.77;;;6.50;83.70;;;;;;5060161;28;20199;-64
2023/01/26 09:18:52;;;;;;;13.80;8.30;;;6.60;81.40;;;;;;5062172;28;20216;-65
2023/01/26 09:21:19;;;;;;;13.83;8.30;;;6.70;82.10;;;;;;5061626;28;20288;-64
2023/01/26 09:23:46;;;;;;;17.60;8.20;;;6.80;82.00;;;;;;5065225;28;20214;-64
2023/01/26 09:26:13;;;;;;;10.90;7.47;;;6.80;81.50;;;;;;5060838;28;20202;-64
2023/01/26 09:28:40;;;;;;;11.33;7.93;;;6.90;80.60;;;;;;5059079;28;20206;-64
2023/01/26 09:31:10;;;;;;;13.57;8.30;;;7.00;80.90;;;;;;5058558;28;20214;-64
2023/01/26 09:33:37;;;;;;;15.37;8.63;;;7.10;80.00;;;;;;5064609;28;20645;-65
2023/01/26 09:36:06;;;;;;;12.33;7.83;;;7.20;80.20;;;;;;5067477;28;20198;-64
2023/01/26 09:38:33;;;;;;;11.67;8.07;;;7.30;79.10;;;;;;5062514;28;20198;-64
2023/01/26 09:41:34;;;;;;;15.13;9.03;;;7.30;76.60;;;;;;5062676;28;20625;-64
2023/01/26 09:44:10;;;;;;;14.13;8.73;;;7.40;77.40;;;;;;5052923;28;20741;-64
2023/01/26 09:46:54;;;;;;;13.00;7.80;;;7.40;78.10;;;;;;5064282;28;20240;-65
2023/01/26 09:49:27;;;;;;;12.87;7.83;;;7.50;78.20;;;;;;5066255;28;20198;-65
2023/01/26 09:52:19;;;;;;;11.77;7.77;;;7.60;78.40;;;;;;5066987;28;20248;-64
2023/01/26 09:54:52;;;;;;;9.93;6.53;;;7.70;77.20;;;;;;5066853;28;20198;-65
2023/01/26 09:57:39;;;;;;;11.30;7.23;;;7.80;75.60;;;;;;5066106;28;20267;-64
2023/01/26 10:00:20;;;;;;;11.40;7.23;;;7.90;76.50;;;;;;5055525;28;20565;-64
2023/01/26 10:03:16;;;;;;;12.60;7.10;;;7.90;74.70;;;;;;5066963;28;20230;-64
2023/01/26 10:06:14;;;;;;;11.63;7.73;;;8.00;75.90;;;;;;5059798;28;20202;-64
2023/01/26 10:09:21;;;;;;;11.87;7.60;;;8.10;72.20;;;;;;5056727;28;20279;-64
2023/01/26 10:11:56;;;;;;;10.20;6.73;;;8.10;72.30;;;;;;5062084;28;20580;-64
2023/01/26 10:14:39;;;;;;;13.20;6.80;;;8.00;72.90;;;;;;5064770;28;20198;-64
2023/01/26 10:17:31;;;;;;;11.47;7.10;;;8.10;72.30;;;;;;5063283;28;20205;-64
2023/01/26 10:20:16;;;;;;;10.13;6.90;;;8.10;71.80;;;;;;5066519;28;20621;-64
2023/01/26 10:22:47;;;;;;;9.67;6.07;;;8.10;72.10;;;;;;5066629;28;20210;-64
2023/01/26 10:25:21;;;;;;;8.40;5.97;;;8.20;71.20;;;;;;5078051;28;20221;-65
2023/01/26 10:27:51;;;;;;;8.67;5.77;;;8.20;69.70;;;;;;5065260;28;20529;-64
2023/01/26 10:30:20;;;;;;;9.73;5.80;;;8.30;70.60;;;;;;5073174;28;20197;-64
2023/01/26 10:32:51;;;;;;;8.27;5.93;;;8.30;70.00;;;;;;5066934;28;20222;-65
2023/01/26 10:35:21;;;;;;;9.83;6.57;;;8.40;69.80;;;;;;5062619;28;20809;-65
2023/01/26 10:37:49;;;;;;;10.47;6.40;;;8.50;70.10;;;;;;5065364;28;20618;-64
2023/01/26 10:40:16;;;;;;;11.77;6.03;;;8.60;69.50;;;;;;5061229;28;20187;-64
2023/01/26 10:42:56;;;;;;;9.40;5.90;;;8.60;68.80;;;;;;5070006;28;20202;-64
2023/01/26 10:45:30;;;;;;;8.67;5.83;;;8.70;70.70;;;;;;5063435;28;20252;-64
2023/01/26 10:48:25;;;;;;;10.00;5.87;;;8.70;68.50;;;;;;5062892;28;20198;-65
2023/01/26 10:50:53;;;;;;;9.43;6.00;;;8.80;69.50;;;;;;5067366;28;20220;-64
2023/01/26 10:53:28;;;;;;;12.00;7.00;;;8.80;67.30;;;;;;5074457;28;20203;-64
2023/01/26 10:56:00;;;;;;;12.10;7.03;;;8.80;68.90;;;;;;5064770;28;20205;-64
2023/01/26 10:58:59;;;;;;;9.70;6.63;;;8.80;68.10;;;;;;5067424;28;20585;-64
2023/01/26 11:01:26;;;;;;;10.93;6.63;;;8.80;69.50;;;;;;5067894;28;20203;-64
2023/01/26 11:04:12;;;;;;;10.07;6.20;;;8.90;70.20;;;;;;5066540;28;20329;-64
2023/01/26 11:06:39;;;;;;;11.10;6.53;;;9.00;68.00;;;;;;5063006;28;20241;-64
2023/01/26 11:09:10;;;;;;;7.00;5.20;;;9.00;67.00;;;;;;5065099;28;20212;-64
2023/01/26 11:11:37;;;;;;;8.83;5.67;;;9.10;65.70;;;;;;5063636;28;20211;-65
2023/01/26 11:14:12;;;;;;;10.40;6.70;;;9.10;66.40;;;;;;5065441;28;20204;-64
2023/01/26 11:16:44;;;;;;;8.60;5.80;;;9.10;67.70;;;;;;5066000;28;20186;-65
2023/01/26 11:19:42;;;;;;;8.77;6.07;;;9.20;67.00;;;;;;5064855;28;20207;-64
2023/01/26 11:22:19;;;;;;;10.90;6.53;;;9.20;67.00;;;;;;5066006;28;20210;-64
2023/01/26 11:24:59;;;;;;;7.80;5.37;;;9.30;66.10;;;;;;5067738;28;20208;-65
2023/01/26 11:27:51;;;;;;;7.73;5.60;;;9.30;66.10;;;;;;5063348;28;20208;-64
2023/01/26 11:30:52;;;;;;;7.57;6.10;;;9.40;64.90;;;;;;5060487;28;20665;-64
2023/01/26 11:33:46;;;;;;;7.97;5.73;;;9.40;65.90;;;;;;5062971;28;20580;-65
2023/01/26 11:36:29;;;;;;;9.03;6.10;;;9.50;66.10;;;;;;5066790;28;20206;-64
2023/01/26 11:39:26;;;;;;;11.03;7.00;;;9.50;64.90;;;;;;5064178;28;20194;-65
2023/01/26 11:42:04;;;;;;;10.00;6.80;;;9.50;63.80;;;;;;5064490;28;20194;-65
2023/01/26 11:44:43;;;;;;;9.37;6.23;;;9.50;63.70;;;;;;5067993;28;20212;-64
2023/01/26 11:47:23;;;;;;;8.03;6.23;;;9.60;64.30;;;;;;5059675;28;20194;-64
2023/01/26 11:49:50;;;;;;;9.07;5.97;;;9.60;63.00;;;;;;5064658;28;20198;-64
2023/01/26 11:52:32;;;;;;;9.60;6.23;;;9.60;63.80;;;;;;5064969;28;20229;-65
2023/01/26 11:55:05;;;;;;;10.80;6.57;;;9.60;64.50;;;;;;5064989;28;20750;-64
2023/01/26 11:57:40;;;;;;;9.20;5.87;;;9.60;63.00;;;;;;5063730;28;20208;-65
2023/01/26 12:00:34;;;;;;;9.67;6.50;;;9.60;63.70;;;;;;5061562;28;20238;-64
2023/01/26 12:03:04;;;;;;;13.57;7.10;;;9.60;62.60;;;;;;5056380;28;20239;-64
2023/01/26 12:05:42;;;;;;;9.17;6.50;;;9.60;64.50;;;;;;5061470;28;20220;-65
2023/01/26 12:08:22;;;;;;;10.60;6.30;;;9.70;62.80;;;;;;5067393;28;20210;-64
2023/01/26 12:10:52;;;;;;;9.70;5.55;;;9.70;62.50;;;;;;5062576;28;20203;-65
2023/01/26 12:13:42;;;;;;;9.23;6.03;;;9.70;61.80;;;;;;5063944;28;21111;-64
2023/01/26 12:17:00;;;;;;;6.07;4.83;;;9.70;61.90;;;;;;5066111;28;20291;-65
2023/01/26 12:20:20;;;;;;;10.57;5.53;;;9.90;62.50;;;;;;5027216;28;20238;-64
2023/01/26 12:23:15;;;;;;;5.97;4.37;;;10.00;62.60;;;;;;5024110;28;20528;-65
2023/01/26 12:25:51;;;;;;;9.00;5.20;;;9.90;62.00;;;;;;5060184;28;20205;-64
2023/01/26 12:28:32;;;;;;;8.20;5.37;;;9.80;62.10;;;;;;5060471;28;20282;-64
2023/01/26 12:31:14;;;;;;;10.77;6.47;;;9.60;62.70;;;;;;5065884;28;20193;-64
2023/01/26 12:33:42;;;;;;;8.60;5.70;;;9.40;62.70;;;;;;5062973;28;20197;-64
2023/01/26 12:36:46;;;;;;;9.03;5.50;;;9.30;63.10;;;;;;5062331;28;20200;-64
2023/01/26 12:39:35;;;;;;;5.20;3.70;;;9.20;65.30;;;;;;5067089;28;20194;-64
2023/01/26 12:42:08;;;;;;;6.90;4.60;;;9.10;65.20;;;;;;5063331;28;20650;-64
2023/01/26 12:44:42;;;;;;;8.17;5.30;;;9.10;64.60;;;;;;5064324;28;20247;-64
2023/01/26 12:47:31;;;;;;;10.07;5.43;;;9.00;64.30;;;;;;5062011;28;20208;-64
2023/01/26 12:50:02;;;;;;;7.13;4.77;;;8.90;64.90;;;;;;5065894;28;20239;-64
2023/01/26 12:52:52;;;;;;;13.43;5.27;;;8.80;65.70;;;;;;5071126;28;20218;-64
2023/01/26 12:55:23;;;;;;;12.97;5.80;;;8.70;65.90;;;;;;5065154;28;20201;-64
2023/01/26 12:57:56;;;;;;;10.30;6.50;;;8.60;66.60;;;;;;5058608;28;20230;-64
2023/01/26 13:00:30;;;;;;;7.53;4.40;;;8.60;67.70;;;;;;5063143;28;20198;-64
2023/01/26 13:03:14;;;;;;;8.57;4.80;;;8.70;68.10;;;;;;5063362;28;20234;-64
2023/01/26 13:06:09;;;;;;;10.37;5.43;;;8.80;65.90;;;;;;5060622;28;20194;-64
2023/01/26 13:08:36;;;;;;;10.37;5.63;;;8.90;66.70;;;;;;5063382;28;20198;-64
2023/01/26 13:11:08;;;;;;;7.93;5.30;;;9.00;65.80;;;;;;5064401;28;20202;-65
2023/01/26 13:14:22;;;;;;;8.07;4.63;;;9.10;65.30;;;;;;5063847;28;20204;-64
2023/01/26 13:16:49;;;;;;;9.00;4.97;;;9.20;66.20;;;;;;5046096;28;20211;-64
2023/01/26 13:19:46;;;;;;;9.83;5.07;;;9.30;65.90;;;;;;5061405;28;20321;-64
2023/01/26 13:22:22;;;;;;;10.93;5.00;;;9.30;65.80;;;;;;5054731;28;20216;-64
2023/01/26 13:24:56;;;;;;;10.43;5.40;;;9.30;66.80;;;;;;5062637;28;20195;-64
2023/01/26 13:27:30;;;;;;;7.83;5.37;;;9.40;67.40;;;;;;5061200;28;20199;-64
2023/01/26 13:29:58;;;;;;;8.53;4.90;;;9.40;66.90;;;;;;5061032;28;20187;-64
2023/01/26 13:32:25;;;;;;;6.43;4.60;;;9.40;64.40;;;;;;5065988;28;20591;-64
2023/01/26 13:34:57;;;;;;;7.17;4.70;;;9.50;63.30;;;;;;5065987;28;20535;-64
2023/01/26 13:37:32;;;;;;;10.73;4.93;;;9.40;64.20;;;;;;5061753;28;20264;-64
2023/01/26 13:40:04;;;;;;;8.03;5.00;;;9.40;63.80;;;;;;5065350;28;20563;-64
2023/01/26 13:42:59;;;;;;;8.60;4.73;;;9.30;64.20;;;;;;5062484;28;20203;-64
2023/01/26 13:46:05;;;;;;;7.43;4.53;;;9.20;64.40;;;;;;5079602;28;20210;-64
2023/01/26 13:48:41;;;;;;;8.57;5.17;;;9.10;65.00;;;;;;5081420;28;20208;-64
2023/01/26 13:51:13;;;;;;;7.67;5.63;;;9.00;64.80;;;;;;5063796;28;20221;-64
2023/01/26 13:54:01;;;;;;;14.57;7.67;;;8.90;64.20;;;;;;5065637;28;20218;-64
2023/01/26 13:56:40;;;;;;;8.50;5.37;;;8.90;64.40;;;;;;5066893;28;20199;-64
2023/01/26 13:59:16;;;;;;;11.97;4.77;;;8.90;64.40;;;;;;5071587;28;20207;-64
2023/01/26 14:01:49;;;;;;;8.27;5.60;;;8.90;63.70;;;;;;5063835;28;20211;-65
2023/01/26 14:04:25;;;;;;;9.40;5.23;;;8.90;65.20;;;;;;5067985;28;20190;-65
2023/01/26 14:06:57;;;;;;;6.93;4.30;;;8.90;65.00;;;;;;5065314;28;20204;-64
2023/01/26 14:09:30;;;;;;;8.03;5.10;;;8.80;65.60;;;;;;5088998;28;20676;-64
2023/01/26 14:12:03;;;;;;;9.07;5.67;;;8.80;66.10;;;;;;5063006;28;20677;-64